sensor_id;sensor_type;location;lat;lon;timestamp;P1;durP1;ratioP1;P2;durP2;ratioP2
51566;SDS011;37657;53.182;5.638;2023-07-09T00:02:15;11.02;;;9.93;;
51566;SDS011;37657;53.182;5.638;2023-07-09T00:04:41;13.88;;;10.57;;
51566;SDS011;37657;53.182;5.638;2023-07-09T00:07:11;11.75;;;10.57;;
51566;SDS011;37657;53.182;5.638;2023-07-09T00:09:49;12.13;;;8.88;;
51566;SDS011;37657;53.182;5.638;2023-07-09T00:12:16;22.65;;;9.82;;
51566;SDS011;37657;53.182;5.638;2023-07-09T00:14:43;14.00;;;9.90;;
51566;SDS011;37657;53.182;5.638;2023-07-09T00:17:15;14.55;;;12.23;;
51566;SDS011;37657;53.182;5.638;2023-07-09T00:20:01;12.30;;;9.82;;
51566;SDS011;37657;53.182;5.638;2023-07-09T00:22:30;10.60;;;9.20;;
51566;SDS011;37657;53.182;5.638;2023-07-09T00:24:55;10.05;;;8.98;;
51566;SDS011;37657;53.182;5.638;2023-07-09T00:27:25;11.73;;;9.50;;
51566;SDS011;37657;53.182;5.638;2023-07-09T00:29:54;11.77;;;10.55;;
51566;SDS011;37657;53.182;5.638;2023-07-09T00:32:19;12.40;;;11.10;;
51566;SDS011;37657;53.182;5.638;2023-07-09T00:34:46;13.60;;;11.15;;
51566;SDS011;37657;53.182;5.638;2023-07-09T00:37:16;12.93;;;11.57;;
51566;SDS011;37657;53.182;5.638;2023-07-09T00:39:43;11.95;;;9.98;;
51566;SDS011;37657;53.182;5.638;2023-07-09T00:42:13;12.40;;;10.25;;
51566;SDS011;37657;53.182;5.638;2023-07-09T00:44:43;15.52;;;9.45;;
51566;SDS011;37657;53.182;5.638;2023-07-09T00:53:00;12.38;;;8.45;;
51566;SDS011;37657;53.182;5.638;2023-07-09T00:55:37;14.05;;;11.00;;
51566;SDS011;37657;53.182;5.638;2023-07-09T00:58:08;11.80;;;8.93;;
51566;SDS011;37657;53.182;5.638;2023-07-09T01:00:37;11.38;;;9.27;;
51566;SDS011;37657;53.182;5.638;2023-07-09T01:03:11;12.30;;;9.30;;
51566;SDS011;37657;53.182;5.638;2023-07-09T01:05:44;12.40;;;10.48;;
51566;SDS011;37657;53.182;5.638;2023-07-09T01:08:16;11.80;;;8.93;;
51566;SDS011;37657;53.182;5.638;2023-07-09T01:10:43;14.35;;;9.75;;
51566;SDS011;37657;53.182;5.638;2023-07-09T01:13:08;10.02;;;8.15;;
51566;SDS011;37657;53.182;5.638;2023-07-09T01:15:35;12.30;;;10.02;;
51566;SDS011;37657;53.182;5.638;2023-07-09T01:18:02;11.60;;;10.25;;
51566;SDS011;37657;53.182;5.638;2023-07-09T01:20:29;11.00;;;9.82;;
51566;SDS011;37657;53.182;5.638;2023-07-09T01:22:55;12.85;;;10.90;;
51566;SDS011;37657;53.182;5.638;2023-07-09T01:25:22;13.10;;;10.68;;
51566;SDS011;37657;53.182;5.638;2023-07-09T01:27:51;10.95;;;9.32;;
51566;SDS011;37657;53.182;5.638;2023-07-09T01:30:29;11.77;;;9.52;;
51566;SDS011;37657;53.182;5.638;2023-07-09T01:33:04;12.63;;;9.32;;
51566;SDS011;37657;53.182;5.638;2023-07-09T01:35:35;9.82;;;8.82;;
51566;SDS011;37657;53.182;5.638;2023-07-09T01:38:02;10.63;;;9.52;;
51566;SDS011;37657;53.182;5.638;2023-07-09T01:40:29;14.52;;;11.20;;
51566;SDS011;37657;53.182;5.638;2023-07-09T01:42:58;10.90;;;9.00;;
51566;SDS011;37657;53.182;5.638;2023-07-09T01:45:34;11.65;;;10.00;;
51566;SDS011;37657;53.182;5.638;2023-07-09T01:48:01;13.98;;;10.70;;
51566;SDS011;37657;53.182;5.638;2023-07-09T01:50:27;10.40;;;9.32;;
51566;SDS011;37657;53.182;5.638;2023-07-09T01:52:56;11.35;;;10.20;;
51566;SDS011;37657;53.182;5.638;2023-07-09T01:55:23;18.40;;;12.68;;
51566;SDS011;37657;53.182;5.638;2023-07-09T01:57:49;13.68;;;10.60;;
51566;SDS011;37657;53.182;5.638;2023-07-09T02:00:19;15.70;;;11.23;;
51566;SDS011;37657;53.182;5.638;2023-07-09T02:02:45;12.52;;;11.20;;
51566;SDS011;37657;53.182;5.638;2023-07-09T02:05:16;12.45;;;9.63;;
51566;SDS011;37657;53.182;5.638;2023-07-09T02:07:46;14.57;;;11.05;;
51566;SDS011;37657;53.182;5.638;2023-07-09T02:10:16;11.57;;;10.38;;
51566;SDS011;37657;53.182;5.638;2023-07-09T02:12:42;12.32;;;10.80;;
51566;SDS011;37657;53.182;5.638;2023-07-09T02:15:08;13.77;;;10.85;;
51566;SDS011;37657;53.182;5.638;2023-07-09T02:17:34;12.48;;;11.05;;
51566;SDS011;37657;53.182;5.638;2023-07-09T02:20:00;12.30;;;10.98;;
51566;SDS011;37657;53.182;5.638;2023-07-09T02:22:25;11.43;;;10.23;;
51566;SDS011;37657;53.182;5.638;2023-07-09T02:24:51;13.13;;;10.20;;
51566;SDS011;37657;53.182;5.638;2023-07-09T02:27:19;13.50;;;11.85;;
51566;SDS011;37657;53.182;5.638;2023-07-09T02:29:54;11.35;;;10.20;;
51566;SDS011;37657;53.182;5.638;2023-07-09T02:32:24;12.73;;;10.43;;
51566;SDS011;37657;53.182;5.638;2023-07-09T02:34:54;12.50;;;10.57;;
51566;SDS011;37657;53.182;5.638;2023-07-09T02:37:21;16.17;;;11.50;;
51566;SDS011;37657;53.182;5.638;2023-07-09T02:39:51;24.48;;;11.88;;
51566;SDS011;37657;53.182;5.638;2023-07-09T02:42:18;10.48;;;9.30;;
51566;SDS011;37657;53.182;5.638;2023-07-09T02:44:45;11.32;;;9.77;;
51566;SDS011;37657;53.182;5.638;2023-07-09T02:47:11;12.20;;;10.80;;
51566;SDS011;37657;53.182;5.638;2023-07-09T02:49:37;13.85;;;10.77;;
51566;SDS011;37657;53.182;5.638;2023-07-09T02:52:04;13.00;;;11.00;;
51566;SDS011;37657;53.182;5.638;2023-07-09T02:54:30;13.40;;;10.82;;
51566;SDS011;37657;53.182;5.638;2023-07-09T02:56:56;13.52;;;9.90;;
51566;SDS011;37657;53.182;5.638;2023-07-09T02:59:21;13.13;;;11.77;;
51566;SDS011;37657;53.182;5.638;2023-07-09T03:01:48;15.35;;;12.77;;
51566;SDS011;37657;53.182;5.638;2023-07-09T03:04:14;15.15;;;12.13;;
51566;SDS011;37657;53.182;5.638;2023-07-09T03:06:49;12.40;;;11.15;;
51566;SDS011;37657;53.182;5.638;2023-07-09T03:09:16;17.13;;;13.02;;
51566;SDS011;37657;53.182;5.638;2023-07-09T03:11:43;12.82;;;10.93;;
51566;SDS011;37657;53.182;5.638;2023-07-09T03:14:14;15.70;;;12.18;;
51566;SDS011;37657;53.182;5.638;2023-07-09T03:16:40;14.23;;;11.25;;
51566;SDS011;37657;53.182;5.638;2023-07-09T03:19:06;12.45;;;10.93;;
51566;SDS011;37657;53.182;5.638;2023-07-09T03:21:32;11.88;;;10.63;;
51566;SDS011;37657;53.182;5.638;2023-07-09T03:23:58;16.60;;;12.15;;
51566;SDS011;37657;53.182;5.638;2023-07-09T03:26:23;13.25;;;10.13;;
51566;SDS011;37657;53.182;5.638;2023-07-09T03:28:50;13.50;;;11.10;;
51566;SDS011;37657;53.182;5.638;2023-07-09T03:31:16;13.32;;;11.05;;
51566;SDS011;37657;53.182;5.638;2023-07-09T03:33:42;15.77;;;12.38;;
51566;SDS011;37657;53.182;5.638;2023-07-09T03:36:08;16.05;;;12.07;;
51566;SDS011;37657;53.182;5.638;2023-07-09T03:38:33;17.45;;;13.10;;
51566;SDS011;37657;53.182;5.638;2023-07-09T03:40:59;12.70;;;11.15;;
51566;SDS011;37657;53.182;5.638;2023-07-09T03:43:25;13.95;;;11.68;;
51566;SDS011;37657;53.182;5.638;2023-07-09T03:45:50;15.73;;;13.27;;
51566;SDS011;37657;53.182;5.638;2023-07-09T03:48:17;16.98;;;12.50;;
51566;SDS011;37657;53.182;5.638;2023-07-09T03:50:44;15.95;;;12.50;;
51566;SDS011;37657;53.182;5.638;2023-07-09T03:53:11;13.57;;;11.65;;
51566;SDS011;37657;53.182;5.638;2023-07-09T03:55:37;14.65;;;11.70;;
51566;SDS011;37657;53.182;5.638;2023-07-09T03:58:03;15.07;;;13.52;;
51566;SDS011;37657;53.182;5.638;2023-07-09T04:00:29;13.80;;;12.05;;
51566;SDS011;37657;53.182;5.638;2023-07-09T04:02:55;11.35;;;9.95;;
51566;SDS011;37657;53.182;5.638;2023-07-09T04:05:24;14.15;;;12.35;;
51566;SDS011;37657;53.182;5.638;2023-07-09T04:07:50;14.55;;;12.95;;
51566;SDS011;37657;53.182;5.638;2023-07-09T04:10:16;13.20;;;10.68;;
51566;SDS011;37657;53.182;5.638;2023-07-09T04:12:42;12.77;;;10.55;;
51566;SDS011;37657;53.182;5.638;2023-07-09T04:15:08;13.55;;;11.88;;
51566;SDS011;37657;53.182;5.638;2023-07-09T04:17:34;14.88;;;11.70;;
51566;SDS011;37657;53.182;5.638;2023-07-09T04:20:00;14.98;;;10.73;;
51566;SDS011;37657;53.182;5.638;2023-07-09T04:22:25;14.15;;;12.30;;
51566;SDS011;37657;53.182;5.638;2023-07-09T04:24:51;12.40;;;11.00;;
51566;SDS011;37657;53.182;5.638;2023-07-09T04:27:17;13.52;;;11.90;;
51566;SDS011;37657;53.182;5.638;2023-07-09T04:29:43;11.77;;;10.55;;
51566;SDS011;37657;53.182;5.638;2023-07-09T04:32:13;13.48;;;12.07;;
51566;SDS011;37657;53.182;5.638;2023-07-09T04:34:40;13.77;;;12.43;;
51566;SDS011;37657;53.182;5.638;2023-07-09T04:37:06;15.65;;;13.52;;
51566;SDS011;37657;53.182;5.638;2023-07-09T04:39:33;15.05;;;12.23;;
51566;SDS011;37657;53.182;5.638;2023-07-09T04:41:59;13.43;;;12.23;;
51566;SDS011;37657;53.182;5.638;2023-07-09T04:44:25;12.30;;;10.65;;
51566;SDS011;37657;53.182;5.638;2023-07-09T04:46:51;13.60;;;11.65;;
51566;SDS011;37657;53.182;5.638;2023-07-09T04:49:16;16.85;;;13.15;;
51566;SDS011;37657;53.182;5.638;2023-07-09T04:51:42;16.88;;;12.15;;
51566;SDS011;37657;53.182;5.638;2023-07-09T04:54:07;14.15;;;11.32;;
51566;SDS011;37657;53.182;5.638;2023-07-09T04:56:33;12.07;;;10.13;;
51566;SDS011;37657;53.182;5.638;2023-07-09T04:58:58;13.25;;;10.88;;
51566;SDS011;37657;53.182;5.638;2023-07-09T05:01:24;13.60;;;12.20;;
51566;SDS011;37657;53.182;5.638;2023-07-09T05:03:50;13.02;;;11.82;;
51566;SDS011;37657;53.182;5.638;2023-07-09T05:06:15;14.90;;;13.35;;
51566;SDS011;37657;53.182;5.638;2023-07-09T05:08:41;14.45;;;12.43;;
51566;SDS011;37657;53.182;5.638;2023-07-09T05:11:08;13.32;;;11.80;;
51566;SDS011;37657;53.182;5.638;2023-07-09T05:13:35;13.30;;;11.48;;
51566;SDS011;37657;53.182;5.638;2023-07-09T05:16:01;14.68;;;11.60;;
51566;SDS011;37657;53.182;5.638;2023-07-09T05:18:27;20.85;;;11.48;;
51566;SDS011;37657;53.182;5.638;2023-07-09T05:20:52;12.90;;;10.90;;
51566;SDS011;37657;53.182;5.638;2023-07-09T05:23:18;15.30;;;11.45;;
51566;SDS011;37657;53.182;5.638;2023-07-09T05:25:44;13.23;;;11.75;;
51566;SDS011;37657;53.182;5.638;2023-07-09T05:28:09;12.77;;;10.80;;
51566;SDS011;37657;53.182;5.638;2023-07-09T05:30:35;13.35;;;11.48;;
51566;SDS011;37657;53.182;5.638;2023-07-09T05:33:00;16.42;;;13.32;;
51566;SDS011;37657;53.182;5.638;2023-07-09T05:35:26;17.10;;;12.85;;
51566;SDS011;37657;53.182;5.638;2023-07-09T05:37:53;17.77;;;11.35;;
51566;SDS011;37657;53.182;5.638;2023-07-09T05:40:19;13.73;;;10.75;;
51566;SDS011;37657;53.182;5.638;2023-07-09T05:42:46;12.20;;;10.77;;
51566;SDS011;37657;53.182;5.638;2023-07-09T05:45:14;12.77;;;10.30;;
51566;SDS011;37657;53.182;5.638;2023-07-09T05:47:40;11.73;;;10.32;;
51566;SDS011;37657;53.182;5.638;2023-07-09T05:50:06;12.00;;;10.90;;
51566;SDS011;37657;53.182;5.638;2023-07-09T05:52:32;15.70;;;12.18;;
51566;SDS011;37657;53.182;5.638;2023-07-09T05:54:58;13.98;;;12.52;;
51566;SDS011;37657;53.182;5.638;2023-07-09T05:57:24;16.98;;;13.45;;
51566;SDS011;37657;53.182;5.638;2023-07-09T05:59:50;14.27;;;12.73;;
51566;SDS011;37657;53.182;5.638;2023-07-09T06:02:17;16.98;;;14.10;;
51566;SDS011;37657;53.182;5.638;2023-07-09T06:04:44;13.85;;;12.38;;
51566;SDS011;37657;53.182;5.638;2023-07-09T06:07:11;17.08;;;13.20;;
51566;SDS011;37657;53.182;5.638;2023-07-09T06:09:38;15.48;;;11.95;;
51566;SDS011;37657;53.182;5.638;2023-07-09T06:12:04;15.35;;;12.15;;
51566;SDS011;37657;53.182;5.638;2023-07-09T06:14:31;20.48;;;13.02;;
51566;SDS011;37657;53.182;5.638;2023-07-09T06:16:58;16.45;;;14.27;;
51566;SDS011;37657;53.182;5.638;2023-07-09T06:19:24;16.70;;;13.10;;
51566;SDS011;37657;53.182;5.638;2023-07-09T06:21:50;16.58;;;12.55;;
51566;SDS011;37657;53.182;5.638;2023-07-09T06:24:16;14.82;;;13.25;;
51566;SDS011;37657;53.182;5.638;2023-07-09T06:26:41;19.80;;;15.50;;
51566;SDS011;37657;53.182;5.638;2023-07-09T06:29:07;19.45;;;14.80;;
51566;SDS011;37657;53.182;5.638;2023-07-09T06:31:32;15.27;;;13.35;;
51566;SDS011;37657;53.182;5.638;2023-07-09T06:33:58;19.15;;;13.45;;
51566;SDS011;37657;53.182;5.638;2023-07-09T06:36:24;15.93;;;13.57;;
51566;SDS011;37657;53.182;5.638;2023-07-09T06:38:49;18.33;;;12.65;;
51566;SDS011;37657;53.182;5.638;2023-07-09T06:41:15;18.95;;;14.52;;
51566;SDS011;37657;53.182;5.638;2023-07-09T06:43:41;19.92;;;14.43;;
51566;SDS011;37657;53.182;5.638;2023-07-09T06:46:09;20.73;;;14.35;;
51566;SDS011;37657;53.182;5.638;2023-07-09T06:48:36;14.88;;;13.30;;
51566;SDS011;37657;53.182;5.638;2023-07-09T06:51:02;16.20;;;13.57;;
51566;SDS011;37657;53.182;5.638;2023-07-09T06:53:28;18.23;;;15.85;;
51566;SDS011;37657;53.182;5.638;2023-07-09T06:55:54;16.83;;;14.48;;
51566;SDS011;37657;53.182;5.638;2023-07-09T06:58:23;16.48;;;13.13;;
51566;SDS011;37657;53.182;5.638;2023-07-09T07:00:52;18.25;;;16.40;;
51566;SDS011;37657;53.182;5.638;2023-07-09T07:03:19;19.45;;;16.83;;
51566;SDS011;37657;53.182;5.638;2023-07-09T07:05:46;17.48;;;15.48;;
51566;SDS011;37657;53.182;5.638;2023-07-09T07:08:14;20.08;;;17.67;;
51566;SDS011;37657;53.182;5.638;2023-07-09T07:10:43;19.65;;;16.95;;
51566;SDS011;37657;53.182;5.638;2023-07-09T07:13:11;28.38;;;25.42;;
51566;SDS011;37657;53.182;5.638;2023-07-09T07:15:38;29.25;;;23.55;;
51566;SDS011;37657;53.182;5.638;2023-07-09T07:18:04;22.10;;;19.73;;
51566;SDS011;37657;53.182;5.638;2023-07-09T07:20:30;26.15;;;23.60;;
51566;SDS011;37657;53.182;5.638;2023-07-09T07:22:56;28.23;;;20.58;;
51566;SDS011;37657;53.182;5.638;2023-07-09T07:25:22;25.77;;;20.83;;
51566;SDS011;37657;53.182;5.638;2023-07-09T07:27:48;18.80;;;16.98;;
51566;SDS011;37657;53.182;5.638;2023-07-09T07:30:14;23.40;;;20.98;;
51566;SDS011;37657;53.182;5.638;2023-07-09T07:32:47;19.08;;;17.00;;
51566;SDS011;37657;53.182;5.638;2023-07-09T07:35:14;18.50;;;16.45;;
51566;SDS011;37657;53.182;5.638;2023-07-09T07:37:40;21.35;;;18.63;;
51566;SDS011;37657;53.182;5.638;2023-07-09T07:40:06;19.05;;;14.95;;
51566;SDS011;37657;53.182;5.638;2023-07-09T07:42:33;17.45;;;15.15;;
51566;SDS011;37657;53.182;5.638;2023-07-09T07:44:59;23.27;;;15.02;;
51566;SDS011;37657;53.182;5.638;2023-07-09T07:47:24;18.77;;;13.32;;
51566;SDS011;37657;53.182;5.638;2023-07-09T07:49:52;26.70;;;19.42;;
51566;SDS011;37657;53.182;5.638;2023-07-09T07:52:18;17.45;;;15.75;;
51566;SDS011;37657;53.182;5.638;2023-07-09T07:54:44;15.70;;;13.88;;
51566;SDS011;37657;53.182;5.638;2023-07-09T07:57:10;19.30;;;17.35;;
51566;SDS011;37657;53.182;5.638;2023-07-09T07:59:36;18.45;;;16.73;;
51566;SDS011;37657;53.182;5.638;2023-07-09T08:02:03;21.67;;;19.35;;
51566;SDS011;37657;53.182;5.638;2023-07-09T08:04:30;23.88;;;20.75;;
51566;SDS011;37657;53.182;5.638;2023-07-09T08:06:57;24.30;;;20.90;;
51566;SDS011;37657;53.182;5.638;2023-07-09T08:09:24;23.50;;;21.20;;
51566;SDS011;37657;53.182;5.638;2023-07-09T08:11:49;23.35;;;21.00;;
51566;SDS011;37657;53.182;5.638;2023-07-09T08:14:15;24.45;;;21.73;;
51566;SDS011;37657;53.182;5.638;2023-07-09T08:16:41;25.45;;;22.67;;
51566;SDS011;37657;53.182;5.638;2023-07-09T08:19:07;24.38;;;21.77;;
51566;SDS011;37657;53.182;5.638;2023-07-09T08:21:33;24.77;;;22.27;;
51566;SDS011;37657;53.182;5.638;2023-07-09T08:23:58;22.17;;;20.02;;
51566;SDS011;37657;53.182;5.638;2023-07-09T08:26:24;21.65;;;19.33;;
51566;SDS011;37657;53.182;5.638;2023-07-09T08:28:50;19.27;;;16.20;;
51566;SDS011;37657;53.182;5.638;2023-07-09T08:31:16;27.80;;;19.45;;
51566;SDS011;37657;53.182;5.638;2023-07-09T08:33:42;20.50;;;18.40;;
51566;SDS011;37657;53.182;5.638;2023-07-09T08:36:08;22.02;;;19.95;;
51566;SDS011;37657;53.182;5.638;2023-07-09T08:38:34;24.77;;;18.55;;
51566;SDS011;37657;53.182;5.638;2023-07-09T08:48:47;13.82;;;9.48;;
51566;SDS011;37657;53.182;5.638;2023-07-09T08:54:00;16.77;;;13.00;;
51566;SDS011;37657;53.182;5.638;2023-07-09T08:56:32;10.20;;;8.77;;
51566;SDS011;37657;53.182;5.638;2023-07-09T08:59:00;10.25;;;7.53;;
51566;SDS011;37657;53.182;5.638;2023-07-09T09:01:28;11.32;;;8.73;;
51566;SDS011;37657;53.182;5.638;2023-07-09T09:03:58;15.77;;;10.38;;
51566;SDS011;37657;53.182;5.638;2023-07-09T09:06:29;11.13;;;8.75;;
51566;SDS011;37657;53.182;5.638;2023-07-09T09:09:04;7.65;;;6.40;;
51566;SDS011;37657;53.182;5.638;2023-07-09T09:16:58;16.48;;;9.27;;
51566;SDS011;37657;53.182;5.638;2023-07-09T09:19:36;12.85;;;8.93;;
51566;SDS011;37657;53.182;5.638;2023-07-09T09:22:09;9.65;;;7.82;;
51566;SDS011;37657;53.182;5.638;2023-07-09T09:24:49;9.23;;;7.00;;
51566;SDS011;37657;53.182;5.638;2023-07-09T09:27:19;9.13;;;7.28;;
51566;SDS011;37657;53.182;5.638;2023-07-09T09:29:44;9.75;;;7.60;;
51566;SDS011;37657;53.182;5.638;2023-07-09T09:32:18;9.13;;;6.30;;
51566;SDS011;37657;53.182;5.638;2023-07-09T09:34:53;9.05;;;6.97;;
51566;SDS011;37657;53.182;5.638;2023-07-09T09:37:27;10.10;;;7.10;;
51566;SDS011;37657;53.182;5.638;2023-07-09T09:39:55;8.55;;;5.75;;
51566;SDS011;37657;53.182;5.638;2023-07-09T09:42:23;9.07;;;7.22;;
51566;SDS011;37657;53.182;5.638;2023-07-09T09:44:50;11.75;;;7.20;;
51566;SDS011;37657;53.182;5.638;2023-07-09T09:47:15;8.82;;;7.05;;
51566;SDS011;37657;53.182;5.638;2023-07-09T09:49:41;13.48;;;7.32;;
51566;SDS011;37657;53.182;5.638;2023-07-09T09:52:15;6.97;;;4.43;;
51566;SDS011;37657;53.182;5.638;2023-07-09T09:54:53;10.40;;;6.97;;
51566;SDS011;37657;53.182;5.638;2023-07-09T09:57:21;9.50;;;6.07;;
51566;SDS011;37657;53.182;5.638;2023-07-09T09:59:48;7.47;;;6.47;;
51566;SDS011;37657;53.182;5.638;2023-07-09T10:02:15;8.18;;;5.88;;
51566;SDS011;37657;53.182;5.638;2023-07-09T10:04:43;8.02;;;6.05;;
51566;SDS011;37657;53.182;5.638;2023-07-09T10:07:24;9.40;;;5.05;;
51566;SDS011;37657;53.182;5.638;2023-07-09T10:10:02;6.10;;;5.03;;
51566;SDS011;37657;53.182;5.638;2023-07-09T10:12:47;8.30;;;5.80;;
51566;SDS011;37657;53.182;5.638;2023-07-09T10:26:35;11.10;;;9.23;;
51566;SDS011;37657;53.182;5.638;2023-07-09T10:32:01;8.52;;;5.63;;
51566;SDS011;37657;53.182;5.638;2023-07-09T10:40:31;13.65;;;8.75;;
51566;SDS011;37657;53.182;5.638;2023-07-09T10:43:16;13.38;;;9.35;;
51566;SDS011;37657;53.182;5.638;2023-07-09T10:45:54;9.55;;;6.68;;
51566;SDS011;37657;53.182;5.638;2023-07-09T10:48:47;8.05;;;5.43;;
51566;SDS011;37657;53.182;5.638;2023-07-09T10:51:26;6.43;;;5.30;;
51566;SDS011;37657;53.182;5.638;2023-07-09T10:54:30;8.45;;;5.05;;
51566;SDS011;37657;53.182;5.638;2023-07-09T10:57:20;14.23;;;6.13;;
51566;SDS011;37657;53.182;5.638;2023-07-09T10:59:53;7.53;;;4.93;;
51566;SDS011;37657;53.182;5.638;2023-07-09T11:02:21;9.23;;;5.75;;
51566;SDS011;37657;53.182;5.638;2023-07-09T11:07:29;9.60;;;6.10;;
51566;SDS011;37657;53.182;5.638;2023-07-09T11:10:09;9.55;;;6.93;;
51566;SDS011;37657;53.182;5.638;2023-07-09T11:13:05;10.73;;;6.45;;
51566;SDS011;37657;53.182;5.638;2023-07-09T11:15:37;9.82;;;6.57;;
51566;SDS011;37657;53.182;5.638;2023-07-09T11:18:07;8.65;;;4.88;;
51566;SDS011;37657;53.182;5.638;2023-07-09T11:20:41;5.88;;;3.92;;
51566;SDS011;37657;53.182;5.638;2023-07-09T11:23:19;6.50;;;4.72;;
51566;SDS011;37657;53.182;5.638;2023-07-09T11:26:00;7.43;;;5.32;;
51566;SDS011;37657;53.182;5.638;2023-07-09T11:28:34;4.68;;;4.10;;
51566;SDS011;37657;53.182;5.638;2023-07-09T11:31:08;13.38;;;5.93;;
51566;SDS011;37657;53.182;5.638;2023-07-09T11:33:49;6.95;;;4.43;;
51566;SDS011;37657;53.182;5.638;2023-07-09T11:36:28;6.53;;;5.00;;
51566;SDS011;37657;53.182;5.638;2023-07-09T11:38:55;7.75;;;4.80;;
51566;SDS011;37657;53.182;5.638;2023-07-09T11:46:48;8.48;;;4.60;;
51566;SDS011;37657;53.182;5.638;2023-07-09T11:49:22;8.02;;;4.68;;
51566;SDS011;37657;53.182;5.638;2023-07-09T11:51:52;10.75;;;5.35;;
51566;SDS011;37657;53.182;5.638;2023-07-09T11:54:22;12.07;;;5.10;;
51566;SDS011;37657;53.182;5.638;2023-07-09T11:56:58;6.63;;;4.75;;
51566;SDS011;37657;53.182;5.638;2023-07-09T11:59:25;6.53;;;4.78;;
51566;SDS011;37657;53.182;5.638;2023-07-09T12:01:51;8.52;;;4.65;;
51566;SDS011;37657;53.182;5.638;2023-07-09T12:04:20;5.03;;;4.53;;
51566;SDS011;37657;53.182;5.638;2023-07-09T12:06:57;8.68;;;5.00;;
51566;SDS011;37657;53.182;5.638;2023-07-09T12:09:24;10.50;;;5.32;;
51566;SDS011;37657;53.182;5.638;2023-07-09T12:11:57;7.50;;;4.53;;
51566;SDS011;37657;53.182;5.638;2023-07-09T12:14:22;6.35;;;4.32;;
51566;SDS011;37657;53.182;5.638;2023-07-09T12:16:49;9.32;;;6.22;;
51566;SDS011;37657;53.182;5.638;2023-07-09T12:19:17;6.47;;;4.50;;
51566;SDS011;37657;53.182;5.638;2023-07-09T12:21:51;11.88;;;4.65;;
51566;SDS011;37657;53.182;5.638;2023-07-09T12:26:54;9.00;;;4.35;;
51566;SDS011;37657;53.182;5.638;2023-07-09T12:29:24;8.23;;;5.32;;
51566;SDS011;37657;53.182;5.638;2023-07-09T12:31:50;8.32;;;5.10;;
51566;SDS011;37657;53.182;5.638;2023-07-09T12:34:16;6.90;;;4.32;;
51566;SDS011;37657;53.182;5.638;2023-07-09T12:36:44;6.82;;;4.15;;
51566;SDS011;37657;53.182;5.638;2023-07-09T12:39:14;5.20;;;3.92;;
51566;SDS011;37657;53.182;5.638;2023-07-09T12:41:43;6.68;;;4.20;;
51566;SDS011;37657;53.182;5.638;2023-07-09T12:44:19;8.05;;;4.35;;
51566;SDS011;37657;53.182;5.638;2023-07-09T12:46:47;10.25;;;5.57;;
51566;SDS011;37657;53.182;5.638;2023-07-09T12:49:28;10.38;;;4.38;;
51566;SDS011;37657;53.182;5.638;2023-07-09T12:51:55;6.78;;;5.25;;
51566;SDS011;37657;53.182;5.638;2023-07-09T12:54:22;7.35;;;5.00;;
51566;SDS011;37657;53.182;5.638;2023-07-09T12:56:53;8.32;;;4.70;;
51566;SDS011;37657;53.182;5.638;2023-07-09T12:59:20;6.35;;;4.22;;
51566;SDS011;37657;53.182;5.638;2023-07-09T13:02:30;5.63;;;4.68;;
51566;SDS011;37657;53.182;5.638;2023-07-09T13:04:42;7.20;;;4.47;;
51566;SDS011;37657;53.182;5.638;2023-07-09T13:09:49;6.93;;;5.00;;
51566;SDS011;37657;53.182;5.638;2023-07-09T13:12:16;6.75;;;4.85;;
51566;SDS011;37657;53.182;5.638;2023-07-09T13:14:42;7.30;;;5.65;;
51566;SDS011;37657;53.182;5.638;2023-07-09T13:17:11;6.78;;;4.90;;
51566;SDS011;37657;53.182;5.638;2023-07-09T13:19:41;8.98;;;6.38;;
51566;SDS011;37657;53.182;5.638;2023-07-09T13:22:07;8.38;;;5.57;;
51566;SDS011;37657;53.182;5.638;2023-07-09T13:24:37;7.63;;;5.60;;
51566;SDS011;37657;53.182;5.638;2023-07-09T13:27:03;9.43;;;6.35;;
51566;SDS011;37657;53.182;5.638;2023-07-09T13:29:30;7.43;;;5.07;;
51566;SDS011;37657;53.182;5.638;2023-07-09T13:31:56;8.85;;;6.90;;
51566;SDS011;37657;53.182;5.638;2023-07-09T13:34:26;8.55;;;5.95;;
51566;SDS011;37657;53.182;5.638;2023-07-09T13:36:53;9.60;;;5.68;;
51566;SDS011;37657;53.182;5.638;2023-07-09T13:39:21;9.23;;;5.95;;
51566;SDS011;37657;53.182;5.638;2023-07-09T13:41:48;9.23;;;6.45;;
51566;SDS011;37657;53.182;5.638;2023-07-09T13:44:20;9.90;;;6.22;;
51566;SDS011;37657;53.182;5.638;2023-07-09T13:46:48;6.85;;;6.15;;
51566;SDS011;37657;53.182;5.638;2023-07-09T13:49:15;8.35;;;5.55;;
51566;SDS011;37657;53.182;5.638;2023-07-09T13:51:43;9.90;;;6.82;;
51566;SDS011;37657;53.182;5.638;2023-07-09T13:54:29;7.53;;;6.55;;
51566;SDS011;37657;53.182;5.638;2023-07-09T13:57:00;9.73;;;6.05;;
51566;SDS011;37657;53.182;5.638;2023-07-09T13:59:30;8.85;;;4.70;;
51566;SDS011;37657;53.182;5.638;2023-07-09T14:01:57;8.82;;;5.10;;
51566;SDS011;37657;53.182;5.638;2023-07-09T14:04:24;10.13;;;5.07;;
51566;SDS011;37657;53.182;5.638;2023-07-09T14:06:51;7.05;;;4.40;;
51566;SDS011;37657;53.182;5.638;2023-07-09T14:09:17;7.22;;;5.55;;
51566;SDS011;37657;53.182;5.638;2023-07-09T14:11:47;5.10;;;4.07;;
51566;SDS011;37657;53.182;5.638;2023-07-09T14:14:19;13.02;;;6.20;;
51566;SDS011;37657;53.182;5.638;2023-07-09T14:16:47;9.80;;;6.40;;
51566;SDS011;37657;53.182;5.638;2023-07-09T14:19:15;9.65;;;6.82;;
51566;SDS011;37657;53.182;5.638;2023-07-09T14:21:42;11.25;;;9.07;;
51566;SDS011;37657;53.182;5.638;2023-07-09T14:24:18;11.20;;;9.80;;
51566;SDS011;37657;53.182;5.638;2023-07-09T14:26:48;7.22;;;4.80;;
51566;SDS011;37657;53.182;5.638;2023-07-09T14:29:15;9.75;;;5.60;;
51566;SDS011;37657;53.182;5.638;2023-07-09T14:31:44;8.32;;;4.90;;
51566;SDS011;37657;53.182;5.638;2023-07-09T14:34:30;12.02;;;6.78;;
51566;SDS011;37657;53.182;5.638;2023-07-09T14:36:58;12.32;;;5.70;;
51566;SDS011;37657;53.182;5.638;2023-07-09T14:39:28;11.82;;;6.40;;
51566;SDS011;37657;53.182;5.638;2023-07-09T14:41:54;12.43;;;7.13;;
51566;SDS011;37657;53.182;5.638;2023-07-09T14:44:27;13.60;;;6.65;;
51566;SDS011;37657;53.182;5.638;2023-07-09T14:46:56;13.02;;;6.65;;
51566;SDS011;37657;53.182;5.638;2023-07-09T14:49:26;8.65;;;6.28;;
51566;SDS011;37657;53.182;5.638;2023-07-09T14:51:52;13.02;;;7.53;;
51566;SDS011;37657;53.182;5.638;2023-07-09T14:59:21;10.20;;;6.50;;
51566;SDS011;37657;53.182;5.638;2023-07-09T15:01:47;8.48;;;5.00;;
51566;SDS011;37657;53.182;5.638;2023-07-09T15:06:52;13.10;;;6.20;;
51566;SDS011;37657;53.182;5.638;2023-07-09T15:09:20;11.90;;;5.88;;
51566;SDS011;37657;53.182;5.638;2023-07-09T15:11:54;10.63;;;7.20;;
51566;SDS011;37657;53.182;5.638;2023-07-09T15:14:24;11.95;;;6.20;;
51566;SDS011;37657;53.182;5.638;2023-07-09T15:16:51;9.40;;;7.40;;
51566;SDS011;37657;53.182;5.638;2023-07-09T15:19:19;11.63;;;8.07;;
51566;SDS011;37657;53.182;5.638;2023-07-09T15:21:46;14.35;;;10.45;;
51566;SDS011;37657;53.182;5.638;2023-07-09T15:24:35;12.38;;;9.13;;
51566;SDS011;37657;53.182;5.638;2023-07-09T15:27:00;11.55;;;10.38;;
51566;SDS011;37657;53.182;5.638;2023-07-09T15:29:29;10.45;;;7.45;;
51566;SDS011;37657;53.182;5.638;2023-07-09T15:31:55;9.52;;;7.45;;
51566;SDS011;37657;53.182;5.638;2023-07-09T15:34:21;10.23;;;8.90;;
51566;SDS011;37657;53.182;5.638;2023-07-09T15:36:48;16.45;;;9.63;;
51566;SDS011;37657;53.182;5.638;2023-07-09T15:39:18;14.32;;;9.55;;
51566;SDS011;37657;53.182;5.638;2023-07-09T15:41:45;18.23;;;10.23;;
51566;SDS011;37657;53.182;5.638;2023-07-09T15:44:15;13.60;;;10.45;;